Terminal Aerodrome Forecast
Issued by NWS

Home | Current Version | Previous Version | Text Only | Print | Product List | Glossary On
Versions: 1 2 3 4 5 6 7 8 9 10 11 12 13 14 15 16
886
FTUS44 KJAN 310538
TAFHKS
TAF
KHKS 310538Z 3106/0106 VRB03KT P6SM FEW030 SCT070 BKN250
     FM311100 VRB03KT 5SM BR FEW020 SCT060 BKN250
     FM311400 VRB05KT P6SM FEW030 SCT050 BKN250
     FM311800 18006KT P6SM VCTS SCT030 BKN050CB BKN250
     FM010100 17003KT P6SM VCSH FEW030 SCT050 BKN150=

USA.gov is the U.S. government's official web portal to all federal, state and local government web resources and services.